createdAt,value
2023-08-15T00:00:51.191Z,24.17
2023-08-15T00:03:52.804Z,24.22
2023-08-15T00:06:54.540Z,24.18
2023-08-15T00:09:56.213Z,24.28
2023-08-15T00:12:57.949Z,24.32
2023-08-15T00:16:00.988Z,24.20
2023-08-15T00:19:02.734Z,24.22
2023-08-15T00:22:04.443Z,24.06
2023-08-15T00:25:06.434Z,24.06
2023-08-15T00:28:08.106Z,24.00
2023-08-15T00:31:11.163Z,23.90
2023-08-15T00:34:12.720Z,23.84
2023-08-15T00:37:14.390Z,23.80
2023-08-15T00:40:16.191Z,23.84
2023-08-15T00:43:17.808Z,23.63
2023-08-15T00:46:20.958Z,23.79
2023-08-15T00:49:23.072Z,23.62
2023-08-15T00:52:24.847Z,23.61
2023-08-15T00:55:27.346Z,23.47
2023-08-15T00:58:30.454Z,23.59
2023-08-15T01:01:34.419Z,23.51
2023-08-15T01:04:38.670Z,23.45
2023-08-15T01:07:40.391Z,23.63
2023-08-15T01:10:43.755Z,23.80
2023-08-15T01:13:54.106Z,23.79
2023-08-15T01:16:58.292Z,23.77
2023-08-15T01:20:05.258Z,23.49
2023-08-15T01:23:08.361Z,23.70
2023-08-15T01:26:11.421Z,23.68
2023-08-15T01:29:13.132Z,23.73
2023-08-15T01:32:28.114Z,23.60
2023-08-15T01:35:34.552Z,23.48
2023-08-15T01:38:40.937Z,23.40
2023-08-15T01:41:46.535Z,23.53
2023-08-15T01:44:49.087Z,23.63
2023-08-15T01:47:52.503Z,23.54
2023-08-15T01:50:54.245Z,23.45
2023-08-15T01:53:55.992Z,23.53
2023-08-15T01:56:59.082Z,23.40
2023-08-15T02:00:00.739Z,23.44
2023-08-15T02:03:02.482Z,23.48
2023-08-15T02:06:04.691Z,23.49
2023-08-15T02:09:06.436Z,23.33
2023-08-15T02:12:09.704Z,23.29
2023-08-15T02:15:11.387Z,23.12
2023-08-15T02:18:13.125Z,23.17
2023-08-15T02:21:14.789Z,23.20
2023-08-15T02:24:16.474Z,23.18
2023-08-15T02:27:19.701Z,23.16
2023-08-15T02:30:21.548Z,23.11
2023-08-15T02:33:23.265Z,23.01
2023-08-15T02:36:24.973Z,22.84
2023-08-15T02:39:26.622Z,23.00
2023-08-15T02:42:29.671Z,23.05
2023-08-15T02:45:31.622Z,23.03
2023-08-15T02:48:33.302Z,22.90
2023-08-15T02:51:34.993Z,23.00
2023-08-15T02:54:36.654Z,22.99
2023-08-15T02:57:39.766Z,23.05
2023-08-15T03:00:41.257Z,23.14
2023-08-15T03:03:42.972Z,22.89
2023-08-15T03:06:44.673Z,22.91
2023-08-15T03:09:46.434Z,23.00
2023-08-15T03:12:49.430Z,22.94
2023-08-15T03:15:52.894Z,22.98
2023-08-15T03:18:54.674Z,22.99
2023-08-15T03:21:57.768Z,23.02
2023-08-15T03:24:59.315Z,23.15
2023-08-15T03:28:02.194Z,23.20
2023-08-15T03:31:08.746Z,23.23
2023-08-15T03:34:10.538Z,23.19
2023-08-15T03:37:12.286Z,23.05
2023-08-15T03:40:14.228Z,23.12
2023-08-15T03:43:17.304Z,23.27
2023-08-15T03:46:19.512Z,23.21
2023-08-15T03:49:21.299Z,23.16
2023-08-15T03:52:23.011Z,23.18
2023-08-15T03:55:24.706Z,23.30
2023-08-15T03:58:27.819Z,23.22
2023-08-15T04:01:29.284Z,23.15
2023-08-15T04:04:30.781Z,23.14
2023-08-15T04:07:32.529Z,23.23
2023-08-15T04:10:35.246Z,23.19
2023-08-15T04:13:39.792Z,23.19
2023-08-15T04:16:41.825Z,23.32
2023-08-15T04:19:44.904Z,23.28
2023-08-15T04:22:46.609Z,23.35
2023-08-15T04:25:49.742Z,23.26
2023-08-15T04:28:53.874Z,23.42
2023-08-15T04:31:55.720Z,23.45
2023-08-15T04:34:57.494Z,23.44
2023-08-15T04:37:59.198Z,23.48
2023-08-15T04:41:00.898Z,23.59
2023-08-15T04:44:04.148Z,23.69
2023-08-15T04:47:06.161Z,23.67
2023-08-15T04:50:08.978Z,23.76
2023-08-15T04:53:10.676Z,23.70
2023-08-15T04:56:12.334Z,23.81
2023-08-15T04:59:15.428Z,23.86
2023-08-15T05:02:16.867Z,23.90
2023-08-15T05:05:18.445Z,23.96
2023-08-15T05:08:20.149Z,24.05
2023-08-15T05:11:23.170Z,24.03
2023-08-15T05:14:27.152Z,24.16
2023-08-15T05:17:31.877Z,24.18
2023-08-15T05:20:33.872Z,24.22
2023-08-15T05:23:35.505Z,24.31
2023-08-15T05:26:37.270Z,24.38
2023-08-15T05:29:58.920Z,24.36
2023-08-15T05:33:01.380Z,24.43
2023-08-15T05:36:03.274Z,24.56
2023-08-15T05:39:05.203Z,24.57
2023-08-15T05:42:07.137Z,24.60
2023-08-15T05:45:11.107Z,24.73
2023-08-15T05:48:12.850Z,24.73
2023-08-15T05:51:14.572Z,24.77
2023-08-15T05:54:16.280Z,24.74
2023-08-15T05:57:17.942Z,24.79
2023-08-15T06:00:21.095Z,24.87
2023-08-15T06:03:39.756Z,24.87
2023-08-15T06:06:45.714Z,25.00
2023-08-15T06:09:47.378Z,25.03
2023-08-15T06:12:49.075Z,25.09
2023-08-15T06:15:52.119Z,25.18
2023-08-15T06:18:53.605Z,25.20
2023-08-15T06:21:55.279Z,25.26
2023-08-15T06:24:57.185Z,25.37
2023-08-15T06:27:58.847Z,25.42
2023-08-15T06:31:01.897Z,25.52
2023-08-15T06:34:03.974Z,25.68
2023-08-15T06:37:05.726Z,25.70
2023-08-15T06:40:08.900Z,25.71
2023-08-15T06:43:10.593Z,26.02
2023-08-15T06:46:13.781Z,25.98
2023-08-15T06:49:15.483Z,26.06
2023-08-15T06:52:17.133Z,26.18
2023-08-15T06:55:18.829Z,26.23
2023-08-15T06:58:20.947Z,26.29
2023-08-15T07:01:24.064Z,26.46
2023-08-15T07:04:25.828Z,26.49
2023-08-15T07:07:27.494Z,26.52
2023-08-15T07:10:29.134Z,26.57
2023-08-15T07:13:30.819Z,26.70
2023-08-15T07:16:33.967Z,26.76
2023-08-15T07:19:35.689Z,26.90
2023-08-15T07:22:37.374Z,27.02
2023-08-15T07:25:39.032Z,27.15
2023-08-15T07:28:40.772Z,27.27
2023-08-15T07:31:43.823Z,27.35
2023-08-15T07:34:45.517Z,27.51
2023-08-15T07:37:47.199Z,27.60
2023-08-15T07:40:48.852Z,27.71
2023-08-15T07:43:50.523Z,27.72
2023-08-15T07:46:53.555Z,27.86
2023-08-15T07:50:13.546Z,27.87
2023-08-15T07:53:15.245Z,28.02
2023-08-15T07:56:16.972Z,27.99
2023-08-15T07:59:18.671Z,28.16
2023-08-15T08:02:21.912Z,28.22
2023-08-15T08:05:24.031Z,28.35
2023-08-15T08:08:25.789Z,28.30
2023-08-15T08:11:27.479Z,28.55
2023-08-15T08:14:29.387Z,28.58
2023-08-15T08:17:32.526Z,28.63
2023-08-15T08:20:34.237Z,28.74
2023-08-15T08:23:35.866Z,28.79
2023-08-15T08:26:37.519Z,28.90
2023-08-15T08:29:39.175Z,29.03
2023-08-15T08:32:42.355Z,29.17
2023-08-15T08:35:44.110Z,29.03
2023-08-15T08:38:45.783Z,29.21
2023-08-15T08:41:47.756Z,29.30
2023-08-15T08:44:50.296Z,29.35
2023-08-15T08:47:53.759Z,29.39
2023-08-15T08:50:57.008Z,29.34
2023-08-15T08:53:58.847Z,29.34
2023-08-15T08:57:01.886Z,29.62
2023-08-15T09:00:04.211Z,29.77
2023-08-15T09:03:08.441Z,29.78
2023-08-15T09:06:10.413Z,29.77
2023-08-15T09:09:13.370Z,29.84
2023-08-15T09:12:33.342Z,30.02
2023-08-15T09:15:35.623Z,29.98
2023-08-15T09:18:38.763Z,30.04
2023-08-15T09:21:40.775Z,30.00
2023-08-15T09:24:45.270Z,30.10
2023-08-15T09:27:47.498Z,30.21
2023-08-15T09:30:53.345Z,30.25
2023-08-15T09:33:57.000Z,30.27
2023-08-15T09:36:59.075Z,30.29
2023-08-15T09:40:01.835Z,30.36
2023-08-15T09:43:04.006Z,30.60
2023-08-15T09:46:05.757Z,30.62
2023-08-15T09:49:09.380Z,30.78
2023-08-15T09:52:12.111Z,30.92
2023-08-15T09:55:15.446Z,30.95
2023-08-15T09:58:17.124Z,30.84
2023-08-15T10:01:20.284Z,30.87
2023-08-15T10:04:24.185Z,31.02
2023-08-15T10:07:28.307Z,31.03
2023-08-15T10:10:34.021Z,30.98
2023-08-15T10:13:37.903Z,31.01
2023-08-15T10:16:39.797Z,31.21
2023-08-15T10:19:46.365Z,31.27
2023-08-15T10:22:50.494Z,31.32
2023-08-15T10:25:53.658Z,31.35
2023-08-15T10:28:57.420Z,31.36
2023-08-15T10:31:59.739Z,31.34
2023-08-15T10:35:04.414Z,31.46
2023-08-15T10:38:14.322Z,31.45
2023-08-15T10:41:17.502Z,31.53
2023-08-15T10:44:19.253Z,31.56
2023-08-15T10:47:24.310Z,31.53
2023-08-15T10:50:27.692Z,31.60
2023-08-15T10:53:29.400Z,31.62
2023-08-15T10:56:32.941Z,31.54
2023-08-15T10:59:37.146Z,31.65
2023-08-15T11:02:38.967Z,31.80
2023-08-15T11:05:42.185Z,31.87
2023-08-15T11:08:45.009Z,31.91
2023-08-15T11:11:47.043Z,32.04
2023-08-15T11:14:49.854Z,31.99
2023-08-15T11:17:51.643Z,31.97
2023-08-15T11:20:54.853Z,32.01
2023-08-15T11:23:59.305Z,32.17
2023-08-15T11:27:00.994Z,32.23
2023-08-15T11:30:02.700Z,32.24
2023-08-15T11:33:05.087Z,32.38
2023-08-15T11:36:08.964Z,32.39
2023-08-15T11:39:14.282Z,32.44
2023-08-15T11:42:16.270Z,32.49
2023-08-15T11:45:19.898Z,32.46
2023-08-15T11:48:22.018Z,32.35
2023-08-15T11:51:25.026Z,32.42
2023-08-15T11:54:27.092Z,32.40
2023-08-15T11:57:35.025Z,32.29
2023-08-15T12:03:40.817Z,32.34
2023-08-15T12:06:43.941Z,32.33
2023-08-15T12:09:45.620Z,32.31
2023-08-15T12:12:48.102Z,32.49
2023-08-15T12:15:49.803Z,32.40
2023-08-15T12:18:51.470Z,32.19
2023-08-15T12:21:54.509Z,32.45
2023-08-15T12:24:56.576Z,32.58
2023-08-15T12:27:58.193Z,32.69
2023-08-15T12:30:59.944Z,32.74
2023-08-15T12:34:01.648Z,32.74
2023-08-15T12:37:04.825Z,32.64
2023-08-15T12:40:14.838Z,32.71
2023-08-15T12:43:23.590Z,32.75
2023-08-15T12:46:25.300Z,32.83
2023-08-15T12:49:26.957Z,32.79
2023-08-15T12:52:30.186Z,32.72
2023-08-15T12:55:31.868Z,32.60
2023-08-15T12:58:33.562Z,32.83
2023-08-15T13:01:35.692Z,32.98
2023-08-15T13:04:37.490Z,32.98
2023-08-15T13:07:40.603Z,33.02
2023-08-15T13:10:44.133Z,33.09
2023-08-15T13:13:45.975Z,32.86
2023-08-15T13:16:47.918Z,32.94
2023-08-15T13:19:49.581Z,32.92
2023-08-15T13:22:52.669Z,32.97
2023-08-15T13:25:54.389Z,33.05
2023-08-15T13:28:56.034Z,33.11
2023-08-15T13:31:57.715Z,33.00
2023-08-15T13:34:59.420Z,32.91
2023-08-15T13:38:02.487Z,32.97
2023-08-15T13:41:04.928Z,33.23
2023-08-15T13:44:06.955Z,33.19
2023-08-15T13:47:08.685Z,33.00
2023-08-15T13:50:10.874Z,33.26
2023-08-15T13:53:13.993Z,33.15
2023-08-15T13:56:16.692Z,33.25
2023-08-15T13:59:18.321Z,33.32
2023-08-15T14:02:20.529Z,33.28
2023-08-15T14:05:22.770Z,33.42
2023-08-15T14:08:26.561Z,33.37
2023-08-15T14:11:28.343Z,33.43
2023-08-15T14:14:30.059Z,33.55
2023-08-15T14:17:31.981Z,33.71
2023-08-15T14:20:35.729Z,33.38
2023-08-15T14:23:38.974Z,33.43
2023-08-15T14:26:40.857Z,33.34
2023-08-15T14:29:42.651Z,33.33
2023-08-15T14:32:44.447Z,33.49
2023-08-15T14:35:46.190Z,33.50
2023-08-15T14:38:50.563Z,33.54
2023-08-15T14:41:52.444Z,33.73
2023-08-15T14:44:55.088Z,33.50
2023-08-15T14:47:56.686Z,33.32
2023-08-15T14:50:58.387Z,33.38
2023-08-15T14:54:01.489Z,33.25
2023-08-15T14:57:03.177Z,33.34
2023-08-15T15:00:06.267Z,33.17
2023-08-15T15:03:08.006Z,33.05
2023-08-15T15:06:09.748Z,33.09
2023-08-15T15:09:12.816Z,33.02
2023-08-15T15:12:14.513Z,32.99
2023-08-15T15:15:16.224Z,33.00
2023-08-15T15:18:17.988Z,32.92
2023-08-15T15:21:19.662Z,32.87
2023-08-15T15:24:23.142Z,32.92
2023-08-15T15:27:24.887Z,32.83
2023-08-15T15:30:26.791Z,32.83
2023-08-15T15:33:29.030Z,32.80
2023-08-15T15:36:30.733Z,32.83
2023-08-15T15:39:34.134Z,32.83
2023-08-15T15:42:35.799Z,32.65
2023-08-15T15:45:37.802Z,32.68
2023-08-15T15:48:39.615Z,32.66
2023-08-15T15:51:41.339Z,32.57
2023-08-15T15:54:44.344Z,32.48
2023-08-15T15:57:46.018Z,32.57
2023-08-15T16:00:47.670Z,32.45
2023-08-15T16:03:49.414Z,32.38
2023-08-15T16:06:51.219Z,32.41
2023-08-15T16:09:54.222Z,32.43
2023-08-15T16:12:55.863Z,32.35
2023-08-15T16:15:57.541Z,32.38
2023-08-15T16:18:59.216Z,32.35
2023-08-15T16:22:00.918Z,32.29
2023-08-15T16:25:04.577Z,32.20
2023-08-15T16:28:06.889Z,32.19
2023-08-15T16:31:08.620Z,32.04
2023-08-15T16:34:10.360Z,31.91
2023-08-15T16:37:12.107Z,32.00
2023-08-15T16:40:15.365Z,31.73
2023-08-15T16:43:18.236Z,31.45
2023-08-15T16:46:19.998Z,31.17
2023-08-15T16:49:22.204Z,31.16
2023-08-15T16:52:24.906Z,31.04
2023-08-15T16:55:29.794Z,30.66
2023-08-15T16:58:31.996Z,30.52
2023-08-15T17:01:33.712Z,30.65
2023-08-15T17:04:35.432Z,30.71
2023-08-15T17:07:38.667Z,30.53
2023-08-15T17:10:41.763Z,30.37
2023-08-15T17:13:46.886Z,30.24
2023-08-15T17:16:50.053Z,29.92
2023-08-15T17:19:51.626Z,29.80
2023-08-15T17:22:53.337Z,29.74
2023-08-15T17:26:00.575Z,29.57
2023-08-15T17:29:05.295Z,29.47
2023-08-15T17:32:07.553Z,29.26
2023-08-15T17:35:09.553Z,29.10
2023-08-15T17:38:13.188Z,29.00
2023-08-15T17:41:16.956Z,29.08
2023-08-15T17:44:18.659Z,29.12
2023-08-15T17:47:20.383Z,29.10
2023-08-15T17:50:22.105Z,29.00
2023-08-15T17:53:23.824Z,28.96
2023-08-15T17:56:27.474Z,28.88
2023-08-15T17:59:29.966Z,28.79
2023-08-15T18:02:32.745Z,28.66
2023-08-15T18:05:35.079Z,28.53
2023-08-15T18:08:37.813Z,28.46
2023-08-15T18:11:41.656Z,28.32
2023-08-15T18:14:43.369Z,28.43
2023-08-15T18:17:45.117Z,28.45
2023-08-15T18:20:47.832Z,28.40
2023-08-15T18:23:50.018Z,28.17
2023-08-15T18:26:53.165Z,28.10
2023-08-15T18:29:55.366Z,27.94
2023-08-15T18:32:57.694Z,27.91
2023-08-15T18:35:59.964Z,27.88
2023-08-15T18:39:02.201Z,27.82
2023-08-15T18:42:06.719Z,27.88
2023-08-15T18:45:09.581Z,27.80
2023-08-15T18:48:12.151Z,27.69
2023-08-15T18:51:13.953Z,27.72
2023-08-15T18:54:16.612Z,27.77
2023-08-15T18:57:20.195Z,27.76
2023-08-15T19:00:22.912Z,27.77
2023-08-15T19:03:26.705Z,27.69
2023-08-15T19:06:29.007Z,27.40
2023-08-15T19:09:31.729Z,27.37
2023-08-15T19:12:36.082Z,27.25
2023-08-15T19:15:39.389Z,27.16
2023-08-15T19:18:42.066Z,27.10
2023-08-15T19:21:44.548Z,27.04
2023-08-15T19:24:46.667Z,27.13
2023-08-15T19:27:50.582Z,27.02
2023-08-15T19:31:01.584Z,26.95
2023-08-15T19:34:04.073Z,26.91
2023-08-15T19:37:06.285Z,26.82
2023-08-15T19:40:09.901Z,26.84
2023-08-15T19:43:13.698Z,26.83
2023-08-15T19:46:16.005Z,26.68
2023-08-15T19:49:18.189Z,26.53
2023-08-15T19:52:21.203Z,26.37
2023-08-15T19:55:23.841Z,26.32
2023-08-15T19:58:27.358Z,26.43
2023-08-15T20:01:29.535Z,26.41
2023-08-15T20:04:31.795Z,26.38
2023-08-15T20:07:35.814Z,26.31
2023-08-15T20:10:40.144Z,26.23
2023-08-15T20:13:44.166Z,26.16
2023-08-15T20:16:46.554Z,26.14
2023-08-15T20:19:48.604Z,26.13
2023-08-15T20:22:51.044Z,26.12
2023-08-15T20:25:53.247Z,26.10
2023-08-15T20:28:56.316Z,26.10
2023-08-15T20:31:58.161Z,26.07
2023-08-15T20:35:00.205Z,26.02
2023-08-15T20:38:02.314Z,25.88
2023-08-15T20:41:04.500Z,25.82
2023-08-15T20:44:08.160Z,25.73
2023-08-15T20:47:09.886Z,25.68
2023-08-15T20:50:11.677Z,25.64
2023-08-15T20:53:13.404Z,25.63
2023-08-15T20:56:15.081Z,25.54
2023-08-15T20:59:18.169Z,25.54
2023-08-15T21:02:19.795Z,25.55
2023-08-15T21:05:21.482Z,25.47
2023-08-15T21:08:23.148Z,25.41
2023-08-15T21:11:24.836Z,25.43
2023-08-15T21:14:27.982Z,25.39
2023-08-15T21:17:29.607Z,25.35
2023-08-15T21:20:31.368Z,25.30
2023-08-15T21:23:33.046Z,25.23
2023-08-15T21:26:35.958Z,25.14
2023-08-15T21:29:40.208Z,25.10
2023-08-15T21:32:41.945Z,25.04
2023-08-15T21:35:43.851Z,24.99
2023-08-15T21:38:45.591Z,25.01
2023-08-15T21:41:47.297Z,24.92
2023-08-15T21:44:50.392Z,24.92
2023-08-15T21:47:51.959Z,24.84
2023-08-15T21:50:53.626Z,24.87
2023-08-15T21:53:55.325Z,24.82
2023-08-15T21:57:03.643Z,24.79
2023-08-15T22:00:08.147Z,24.79
2023-08-15T22:03:10.103Z,24.70
2023-08-15T22:06:11.920Z,24.62
2023-08-15T22:09:13.651Z,24.58
2023-08-15T22:12:15.333Z,24.64
2023-08-15T22:15:19.054Z,24.61
2023-08-15T22:18:21.867Z,24.54
2023-08-15T22:21:23.881Z,24.48
2023-08-15T22:24:25.569Z,24.46
2023-08-15T22:27:27.305Z,24.43
2023-08-15T22:30:30.718Z,24.40
2023-08-15T22:33:32.453Z,24.40
2023-08-15T22:36:34.124Z,24.33
2023-08-15T22:39:35.806Z,24.32
2023-08-15T22:42:37.455Z,24.32
2023-08-15T22:45:40.539Z,24.34
2023-08-15T22:48:42.054Z,24.33
2023-08-15T22:51:43.565Z,24.21
2023-08-15T22:54:45.214Z,24.25
2023-08-15T22:57:46.931Z,24.23
2023-08-15T23:00:55.000Z,24.14
2023-08-15T23:03:56.768Z,24.14
2023-08-15T23:06:58.464Z,24.09
2023-08-15T23:10:00.175Z,24.14
2023-08-15T23:13:01.838Z,24.12
2023-08-15T23:16:05.358Z,24.08
2023-08-15T23:19:07.018Z,24.03
2023-08-15T23:22:08.665Z,24.04
2023-08-15T23:25:10.321Z,23.97
2023-08-15T23:28:12.356Z,23.94
2023-08-15T23:31:15.424Z,23.80
2023-08-15T23:34:17.551Z,23.80
2023-08-15T23:37:19.283Z,23.71
2023-08-15T23:40:20.963Z,23.70
2023-08-15T23:43:22.697Z,23.66
2023-08-15T23:46:25.880Z,23.61
2023-08-15T23:49:27.377Z,23.62
2023-08-15T23:52:28.817Z,23.59
2023-08-15T23:55:30.496Z,23.53
2023-08-15T23:58:32.179Z,23.54
